Terminal Aerodrome Forecast
Issued by NWS

Home | Current Version | Previous Version | Text Only | Print | Product List | Glossary On
Versions: 1 2 3 4 5 6 7 8 9 10 11 12 13
472
FTUS44 KLZK 230548
TAFHOT
TAF
KHOT 230548Z 2306/2406 VRB05KT 6SM -SHRA BR OVC007
      TEMPO 2306/2310 4SM SHRA BR SCT007 OVC030
     FM231500 27007KT P6SM -SHRA SCT007 OVC020
     FM231900 27007KT P6SM -SHRA VCTS SCT025CB BKN060
     FM240200 VRB03KT P6SM VCSH SCT060 BKN100=

USA.gov is the U.S. government's official web portal to all federal, state and local government web resources and services.